Time;durP1;ratioP1;P1;durP2;ratioP2;P2;SDS_P1;SDS_P2;PMS_P1;PMS_P2;Temp;Humidity;BMP_temperature;BMP_pressure;BME280_temperature;BME280_humidity;BME280_pressure;Samples;Min_cycle;Max_cycle;Signal;HPM_P1;HPM_P2
2022/10/22 00:02:26;;;;;;;26.15;10.55;;;;;;;13.46;100.00;99517.00;5038054;28;20459;-94
2022/10/22 00:04:55;;;;;;;35.25;12.35;;;;;;;13.41;100.00;99498.09;5020390;28;20057;-94
2022/10/22 00:07:22;;;;;;;28.83;11.20;;;;;;;13.79;100.00;99564.75;5020371;28;20144;-95
2022/10/22 00:09:49;;;;;;;41.35;13.02;;;;;;;13.57;100.00;99558.34;5019866;28;20053;-95
2022/10/22 00:12:16;;;;;;;26.15;11.32;;;;;;;13.75;100.00;99550.13;5020825;28;20476;-95
2022/10/22 00:14:43;;;;;;;32.63;13.35;;;;;;;13.48;100.00;99530.06;5020455;28;20045;-95
2022/10/22 00:17:10;;;;;;;23.98;10.00;;;;;;;13.61;100.00;99533.50;5020178;28;20450;-94
2022/10/22 00:19:38;;;;;;;32.83;11.60;;;;;;;13.41;100.00;99523.53;5020274;28;20057;-94
2022/10/22 00:22:06;;;;;;;59.40;12.43;;;;;;;13.36;100.00;99534.38;5019988;28;20057;-95
2022/10/22 00:24:34;;;;;;;21.60;7.85;;;;;;;13.55;100.00;99536.56;5020045;28;20447;-94
2022/10/22 00:27:02;;;;;;;33.47;9.15;;;;;;;13.88;100.00;99560.63;5019884;28;20494;-94
2022/10/22 00:29:28;;;;;;;16.92;7.18;;;;;;;13.75;100.00;99539.63;5019760;28;20056;-94
2022/10/22 00:31:55;;;;;;;27.30;8.15;;;;;;;13.68;100.00;99533.94;5019713;28;20057;-95
2022/10/22 00:34:23;;;;;;;37.10;7.68;;;;;;;13.85;100.00;99562.53;5019720;28;20049;-95
2022/10/22 00:36:50;;;;;;;27.45;8.05;;;;;;;13.69;100.00;99538.25;5020192;28;20053;-95
2022/10/22 00:39:20;;;;;;;13.75;5.90;;;;;;;13.81;100.00;99557.59;5020490;28;20056;-94
2022/10/22 00:41:49;;;;;;;13.77;5.75;;;;;;;13.82;100.00;99560.13;5020102;28;20061;-94
2022/10/22 00:44:53;;;;;;;31.80;6.28;;;;;;;13.89;100.00;99557.06;5020639;28;20061;-94
2022/10/22 00:47:22;;;;;;;14.75;4.82;;;;;;;13.64;100.00;99508.81;5019920;28;20045;-94
2022/10/22 00:49:50;;;;;;;32.80;6.63;;;;;;;13.63;100.00;99518.50;5019659;28;20045;-95
2022/10/22 00:52:18;;;;;;;89.57;11.18;;;;;;;13.85;100.00;99562.53;5001020;28;20408;-95
2022/10/22 00:54:44;;;;;;;35.22;6.60;;;;;;;13.88;100.00;99556.19;5000091;28;20104;-95
2022/10/22 00:57:11;;;;;;;57.55;9.27;;;;;;;13.63;100.00;99531.63;5000929;28;20046;-95
2022/10/22 00:59:38;;;;;;;32.17;7.10;;;;;;;13.53;100.00;99524.47;4999728;28;20435;-94
2022/10/22 01:02:05;;;;;;;87.78;11.02;;;;;;;13.52;100.00;99528.88;5000001;28;20120;-94
2022/10/22 01:04:31;;;;;;;22.40;6.18;;;;;;;13.52;100.00;99528.88;5013706;28;20053;-94
2022/10/22 01:06:58;;;;;;;24.95;5.70;;;;;;;13.61;100.00;99533.50;5018911;28;20199;-93
2022/10/22 01:09:38;;;;;;;14.40;3.78;;;;;;;13.44;100.00;99503.13;5013380;28;20046;-94
2022/10/22 01:12:26;;;;;;;20.58;4.28;;;;;;;13.86;100.00;99550.22;5030013;28;20050;-94
2022/10/22 01:15:15;;;;;;;18.40;4.55;;;;;;;13.80;100.00;99551.50;5004147;28;20100;-94
2022/10/22 01:17:54;;;;;;;23.35;5.50;;;;;;;13.63;100.00;99521.13;5033660;28;20045;-94
2022/10/22 01:20:27;;;;;;;20.35;4.82;;;;;;;13.78;100.00;99550.75;5018353;28;20076;-94
2022/10/22 01:23:12;;;;;;;23.05;5.25;;;;;;;13.62;100.00;99501.00;5019159;28;20050;-95
2022/10/22 01:25:59;;;;;;;162.80;14.80;;;;;;;13.55;100.00;99518.16;5018585;28;20076;-94
2022/10/22 01:28:59;;;;;;;60.42;8.63;;;;;;;13.65;100.00;99534.13;4999174;28;20112;-95
2022/10/22 01:31:32;;;;;;;38.40;7.53;;;;;;;13.82;100.00;99551.38;5003936;28;20049;-94
2022/10/22 01:34:01;;;;;;;41.45;7.95;;;;;;;13.62;100.00;99519.44;5017958;28;20140;-94
2022/10/22 01:36:33;;;;;;;36.10;6.72;;;;;;;13.61;100.00;99525.63;5017913;28;20046;-94
2022/10/22 01:39:01;;;;;;;19.33;5.47;;;;;;;13.67;100.00;99530.47;5017876;28;20053;-93
2022/10/22 01:41:28;;;;;;;18.55;5.70;;;;;;;13.85;100.00;99544.13;5031571;28;20050;-93
2022/10/22 01:43:55;;;;;;;63.50;11.40;;;;;;;13.65;100.00;99507.84;5017673;28;20099;-94
2022/10/22 01:46:25;;;;;;;18.27;6.80;;;;;;;13.90;100.00;99540.31;5017550;28;20053;-94
2022/10/22 01:49:23;;;;;;;32.70;7.75;;;;;;;14.00;100.00;99536.91;5007866;28;20122;-94
2022/10/22 01:52:14;;;;;;;23.88;6.03;;;;;;;14.00;100.00;99530.81;5024425;28;20451;-95
2022/10/22 01:54:48;;;;;;;25.98;7.70;;;;;;;13.94;100.00;99534.75;5018276;28;20458;-94
2022/10/22 01:57:39;;;;;;;20.92;7.13;;;;;;;13.98;100.00;99538.00;5018287;28;20045;-95
2022/10/22 02:00:11;;;;;;;21.00;7.03;;;;;;;13.73;100.00;99502.88;5017466;28;20137;-94
2022/10/22 02:03:04;;;;;;;14.23;5.45;;;;;;;13.77;100.00;99491.19;5017028;28;20053;-94
2022/10/22 02:05:41;;;;;;;20.42;8.25;;;;;;;13.93;100.00;99534.84;5002290;28;20073;-94
2022/10/22 02:08:11;;;;;;;19.67;6.82;;;;;;;13.67;100.00;99484.91;5013083;28;20065;-94
2022/10/22 02:10:42;;;;;;;14.00;5.95;;;;;;;13.96;100.00;99535.47;5018218;28;20096;-96
2022/10/22 02:13:14;;;;;;;20.25;7.63;;;;;;;13.72;100.00;99488.03;5017689;28;20053;-94
2022/10/22 02:15:44;;;;;;;18.27;7.13;;;;;;;13.55;100.00;99460.31;5018502;28;20479;-95
2022/10/22 02:18:12;;;;;;;15.90;5.63;;;;;;;13.58;100.00;99477.66;5017735;28;20053;-94
2022/10/22 02:20:41;;;;;;;12.40;5.53;;;;;;;13.84;100.00;99505.59;5018753;28;20364;-95
2022/10/22 02:23:09;;;;;;;17.95;6.35;;;;;;;13.73;100.00;99512.56;5018617;28;20045;-95
2022/10/22 02:25:40;;;;;;;16.00;6.38;;;;;;;13.63;100.00;99489.56;5018303;28;20123;-94
2022/10/22 02:28:28;;;;;;;18.98;6.80;;;;;;;13.60;100.00;99481.03;5018880;28;20396;-94
2022/10/22 02:31:00;;;;;;;16.67;6.80;;;;;;;13.99;100.00;99526.53;5018710;28;20103;-95
2022/10/22 02:33:31;;;;;;;11.53;5.33;;;;;;;14.08;100.00;99535.53;5019491;28;20049;-94
2022/10/22 02:36:01;;;;;;;12.32;4.47;;;;;;;13.78;100.00;99489.41;5017865;28;20060;-94
2022/10/22 02:38:29;;;;;;;14.75;4.95;;;;;;;13.79;100.00;99498.97;5017357;28;20107;-95
2022/10/22 02:40:56;;;;;;;12.00;3.83;;;;;;;13.83;100.00;99506.56;5017249;28;20056;-94
2022/10/22 02:43:24;;;;;;;11.35;3.72;;;;;;;13.89;100.00;99509.72;5016791;28;20091;-92
2022/10/22 02:45:51;;;;;;;13.07;4.20;;;;;;;13.84;100.00;99479.28;5016341;28;20057;-94
2022/10/22 02:48:17;;;;;;;11.90;4.15;;;;;;;13.78;100.00;99471.00;5016298;28;20050;-92
2022/10/22 02:50:44;;;;;;;7.93;3.13;;;;;;;13.69;100.00;99459.34;5015901;28;20442;-92
2022/10/22 02:53:11;;;;;;;10.20;2.97;;;;;;;13.91;100.00;99484.13;5016560;28;20057;-93
2022/10/22 02:55:37;;;;;;;7.72;2.53;;;;;;;13.84;100.00;99468.75;5004712;28;20104;-93
2022/10/22 02:58:04;;;;;;;9.90;2.75;;;;;;;13.78;100.00;99466.56;5015380;28;20053;-93
2022/10/22 03:00:31;;;;;;;13.02;4.63;;;;;;;13.89;100.00;99472.88;5016645;28;20042;-92
2022/10/22 03:02:58;;;;;;;10.02;3.30;;;;;;;14.00;100.00;99479.03;5016934;28;20106;-93
2022/10/22 03:05:24;;;;;;;6.13;2.55;;;;;;;14.00;100.00;99479.03;5016865;28;20057;-93
2022/10/22 03:07:51;;;;;;;7.55;2.80;;;;;;;14.00;100.00;99473.75;5016988;28;20487;-93
2022/10/22 03:10:18;;;;;;;11.80;3.88;;;;;;;14.15;100.00;99500.78;5016559;28;20111;-94
2022/10/22 03:12:44;;;;;;;13.65;4.18;;;;;;;13.94;100.00;99468.94;5017182;28;20103;-94
2022/10/22 03:15:11;;;;;;;21.58;5.50;;;;;;;13.96;100.00;99466.22;5017541;28;20045;-94
2022/10/22 03:17:38;;;;;;;10.13;3.97;;;;;;;13.95;100.00;99483.81;5017200;28;20119;-95
2022/10/22 03:20:06;;;;;;;21.33;4.75;;;;;;;13.91;100.00;99482.31;5017847;28;20494;-95
2022/10/22 03:22:35;;;;;;;21.92;4.90;;;;;;;13.74;100.00;99451.09;5016951;28;20053;-94
2022/10/22 03:25:06;;;;;;;15.98;4.85;;;;;;;13.75;100.00;99450.19;5016574;28;20099;-94
2022/10/22 03:27:36;;;;;;;12.93;3.80;;;;;;;13.91;100.00;99476.22;5001075;28;20427;-94
2022/10/22 03:30:06;;;;;;;9.93;3.50;;;;;;;13.97;100.00;99487.16;5016556;28;20100;-94
2022/10/22 03:32:32;;;;;;;12.60;4.28;;;;;;;13.99;100.00;99477.38;5016707;28;20046;-95
2022/10/22 03:34:59;;;;;;;14.48;4.72;;;;;;;13.87;100.00;99467.72;5016960;28;20622;-94
2022/10/22 03:37:26;;;;;;;12.57;3.72;;;;;;;14.03;100.00;99497.22;5017116;28;20049;-95
2022/10/22 03:39:54;;;;;;;16.60;4.68;;;;;;;13.97;100.00;99483.66;5017160;28;20052;-95
2022/10/22 03:42:21;;;;;;;15.93;4.95;;;;;;;13.88;100.00;99472.00;5017138;28;20069;-94
2022/10/22 03:44:48;;;;;;;31.40;6.35;;;;;;;13.80;100.00;99477.81;5017413;28;20415;-95
2022/10/22 03:47:15;;;;;;;16.80;4.47;;;;;;;13.76;100.00;99473.75;5017238;28;20053;-95
2022/10/22 03:49:42;;;;;;;17.52;4.30;;;;;;;14.08;100.00;99504.81;5017092;28;20046;-94
2022/10/22 03:52:11;;;;;;;12.77;3.80;;;;;;;13.76;100.00;99452.69;5017358;28;20681;-95
2022/10/22 03:54:38;;;;;;;14.75;4.53;;;;;;;13.94;100.00;99483.91;5017343;28;20053;-94
2022/10/22 03:57:05;;;;;;;14.57;4.47;;;;;;;13.93;100.00;99462.00;5016883;28;20049;-94
2022/10/22 03:59:43;;;;;;;12.18;3.92;;;;;;;14.03;100.00;99486.72;5018131;28;20111;-94
2022/10/22 04:02:11;;;;;;;18.90;5.05;;;;;;;14.14;100.00;99500.88;5017806;28;20459;-94
2022/10/22 04:04:38;;;;;;;10.05;2.97;;;;;;;14.27;100.00;99498.19;5016932;28;20046;-94
2022/10/22 04:07:06;;;;;;;16.27;5.50;;;;;;;14.02;100.00;99460.50;5017340;28;20486;-94
2022/10/22 04:09:34;;;;;;;11.63;3.85;;;;;;;14.09;100.00;99495.13;5017675;28;20061;-95
2022/10/22 04:12:01;;;;;;;14.50;4.18;;;;;;;13.99;100.00;99471.28;5017020;28;20053;-94
2022/10/22 04:14:27;;;;;;;11.73;3.85;;;;;;;13.93;100.00;99462.00;5016364;28;20126;-94
2022/10/22 04:16:54;;;;;;;10.63;3.45;;;;;;;14.03;100.00;99478.81;5016583;28;20103;-95
2022/10/22 04:19:21;;;;;;;9.88;3.63;;;;;;;14.05;100.00;99479.53;5016893;28;20057;-95
2022/10/22 04:21:47;;;;;;;11.98;3.53;;;;;;;14.03;100.00;99470.09;5016951;28;20049;-96
2022/10/22 04:24:14;;;;;;;9.90;3.25;;;;;;;14.07;100.00;99475.97;5017412;28;20049;-95
2022/10/22 04:26:41;;;;;;;11.30;3.20;;;;;;;14.07;100.00;99473.34;5016927;28;20050;-95
2022/10/22 04:29:08;;;;;;;21.70;5.45;;;;;;;14.03;100.00;99478.81;5016970;28;20049;-96
2022/10/22 04:31:41;;;;;;;12.77;4.35;;;;;;;14.04;100.00;99458.59;5017609;28;20049;-96
2022/10/22 04:34:08;;;;;;;13.02;4.40;;;;;;;14.05;100.00;99469.00;5017449;28;20451;-94
2022/10/22 04:36:35;;;;;;;16.02;3.97;;;;;;;14.04;100.00;99472.59;5020007;28;20377;-95
2022/10/22 04:39:03;;;;;;;13.13;4.38;;;;;;;13.96;100.00;99458.31;5020743;28;20456;-95
2022/10/22 04:41:39;;;;;;;11.68;3.60;;;;;;;14.06;100.00;99472.50;5020661;28;20487;-96
2022/10/22 04:44:06;;;;;;;12.10;3.40;;;;;;;14.25;100.00;99498.31;5020601;28;20053;-96
2022/10/22 04:46:41;;;;;;;16.88;5.22;;;;;;;14.21;100.00;99494.22;5021371;28;20098;-96
2022/10/22 04:49:08;;;;;;;15.65;4.72;;;;;;;14.05;100.00;99471.66;5020271;28;20045;-95
2022/10/22 04:51:34;;;;;;;10.68;3.95;;;;;;;14.07;100.00;99470.69;5019747;28;20057;-94
2022/10/22 04:54:01;;;;;;;11.05;3.80;;;;;;;14.07;100.00;99468.06;5020232;28;20115;-95
2022/10/22 04:56:29;;;;;;;10.38;3.15;;;;;;;14.20;100.00;99493.41;5019878;28;20076;-95
2022/10/22 04:59:00;;;;;;;11.68;3.90;;;;;;;14.05;100.00;99460.28;5020131;28;20049;-95
2022/10/22 05:01:30;;;;;;;11.70;3.53;;;;;;;14.08;100.00;99473.22;5019711;28;20454;-94
2022/10/22 05:03:59;;;;;;;9.05;3.53;;;;;;;14.29;100.00;99497.16;5020901;28;20056;-94
2022/10/22 05:06:28;;;;;;;16.05;4.40;;;;;;;14.01;100.00;99462.28;5020086;28;20487;-94
2022/10/22 05:09:00;;;;;;;6.75;2.45;;;;;;;14.11;100.00;99473.00;5019882;28;20107;-96
2022/10/22 05:11:30;;;;;;;7.07;2.47;;;;;;;14.33;100.00;99503.03;5019535;28;20077;-95
2022/10/22 05:13:58;;;;;;;7.70;2.92;;;;;;;13.98;100.00;99453.78;5020474;28;20462;-95
2022/10/22 05:16:27;;;;;;;7.75;2.75;;;;;;;14.10;100.00;99476.59;5019341;28;20191;-94
2022/10/22 05:18:54;;;;;;;11.90;3.65;;;;;;;14.08;100.00;99485.53;5019608;28;20112;-96
2022/10/22 05:21:21;;;;;;;15.48;4.22;;;;;;;14.03;100.00;99472.72;5019426;28;20046;-95
2022/10/22 05:23:49;;;;;;;10.85;3.20;;;;;;;14.06;100.00;99485.66;5019046;28;20511;-94
2022/10/22 05:26:18;;;;;;;16.13;4.85;;;;;;;14.25;100.00;99516.75;5018412;28;20057;-91
2022/10/22 05:28:46;;;;;;;26.55;4.43;;;;;;;14.15;100.00;99507.84;5018996;28;20095;-96
2022/10/22 05:31:14;;;;;;;13.90;3.88;;;;;;;14.24;100.00;99529.06;5021724;28;20045;-96
2022/10/22 05:33:42;;;;;;;18.35;4.00;;;;;;;14.18;100.00;99513.72;5019315;28;20057;-96
2022/10/22 05:36:15;;;;;;;8.13;3.15;;;;;;;14.08;100.00;99486.38;5019219;28;20436;-95
2022/10/22 05:38:42;;;;;;;13.80;3.25;;;;;;;14.08;100.00;99491.66;5019092;28;20057;-96
2022/10/22 05:41:20;;;;;;;7.57;3.08;;;;;;;14.19;100.00;99501.41;5019127;28;20506;-96
2022/10/22 05:43:47;;;;;;;10.70;3.25;;;;;;;14.08;100.00;99488.16;5019176;28;20057;-96
2022/10/22 05:46:19;;;;;;;6.63;2.58;;;;;;;14.00;100.00;99476.38;5018822;28;20112;-96
2022/10/22 05:48:53;;;;;;;9.90;3.10;;;;;;;14.24;100.00;99510.66;5019226;28;20099;-96
2022/10/22 05:51:23;;;;;;;12.95;3.40;;;;;;;13.89;100.00;99457.91;5018896;28;20041;-96
2022/10/22 05:53:55;;;;;;;13.13;3.78;;;;;;;14.27;100.00;99514.00;5017764;28;20487;-94
2022/10/22 05:56:23;;;;;;;9.53;3.47;;;;;;;14.22;100.00;99515.19;5018079;28;20053;-94
2022/10/22 05:58:50;;;;;;;9.85;3.53;;;;;;;14.13;100.00;99502.69;5004069;28;20053;-93
2022/10/22 06:01:17;;;;;;;12.25;3.33;;;;;;;14.28;100.00;99515.69;5011403;28;20067;-95
2022/10/22 06:03:45;;;;;;;12.55;4.15;;;;;;;13.96;100.00;99472.31;5018052;28;20549;-95
2022/10/22 06:06:20;;;;;;;10.70;3.08;;;;;;;14.30;100.00;99514.63;5018523;28;20049;-94
2022/10/22 06:08:49;;;;;;;12.93;2.65;;;;;;;14.14;100.00;99487.72;5018235;28;20053;-94
2022/10/22 06:11:18;;;;;;;11.35;3.15;;;;;;;14.29;100.00;99517.34;5018007;28;20117;-94
2022/10/22 06:13:45;;;;;;;11.55;3.38;;;;;;;14.27;100.00;99522.75;5018824;28;20480;-93
2022/10/22 06:16:12;;;;;;;8.75;2.78;;;;;;;14.29;100.00;99525.25;5018704;28;20073;-95
2022/10/22 06:18:39;;;;;;;13.77;3.08;;;;;;;14.20;100.00;99505.69;5019077;28;20057;-94
2022/10/22 06:21:09;;;;;;;6.03;2.20;;;;;;;14.36;100.00;99527.34;5018301;28;20045;-94
2022/10/22 06:23:37;;;;;;;10.00;2.78;;;;;;;14.00;100.00;99481.66;5018053;28;20052;-94
2022/10/22 06:26:05;;;;;;;7.43;2.25;;;;;;;14.31;100.00;99526.84;5018668;28;20427;-93
2022/10/22 06:28:35;;;;;;;12.00;2.67;;;;;;;13.90;100.00;99467.50;5022045;28;20049;-95
2022/10/22 06:31:03;;;;;;;5.80;2.05;;;;;;;14.10;100.00;99497.66;5024738;28;20041;-93
2022/10/22 06:33:33;;;;;;;10.07;3.50;;;;;;;14.23;100.00;99527.38;5018269;28;20057;-93
2022/10/22 06:36:12;;;;;;;9.27;2.95;;;;;;;14.26;100.00;99528.13;5017878;28;20062;-94
2022/10/22 06:38:39;;;;;;;9.63;3.80;;;;;;;14.13;100.00;99509.72;5012640;28;20486;-91
2022/10/22 06:41:15;;;;;;;9.32;2.80;;;;;;;14.17;100.00;99514.66;5008726;28;20108;-96
2022/10/22 06:43:45;;;;;;;9.32;2.50;;;;;;;14.18;100.00;99523.41;4998735;28;20049;-96
2022/10/22 06:46:18;;;;;;;9.15;3.15;;;;;;;13.98;100.00;99496.72;4999319;28;20049;-96
2022/10/22 06:48:51;;;;;;;13.63;3.42;;;;;;;14.02;100.00;99503.47;4998440;28;20133;-96
2022/10/22 06:51:18;;;;;;;9.27;3.25;;;;;;;14.05;100.00;99508.50;5016396;28;20136;-94
2022/10/22 06:53:45;;;;;;;10.13;3.15;;;;;;;14.09;100.00;99508.28;5018717;28;20410;-94
2022/10/22 06:56:15;;;;;;;16.10;4.47;;;;;;;13.97;100.00;99500.31;5018640;28;20045;-95
2022/10/22 06:58:42;;;;;;;9.27;3.00;;;;;;;14.00;100.00;99507.13;5017532;28;20108;-96
2022/10/22 07:01:11;;;;;;;10.13;3.92;;;;;;;14.09;100.00;99514.38;5017826;28;20423;-95
2022/10/22 07:03:39;;;;;;;8.35;3.15;;;;;;;13.96;100.00;99497.78;5017087;28;20050;-94
2022/10/22 07:06:09;;;;;;;11.77;3.90;;;;;;;14.24;100.00;99544.88;5003298;28;20058;-95
2022/10/22 07:08:36;;;;;;;10.57;3.20;;;;;;;13.98;100.00;99507.25;4998418;28;20115;-95
2022/10/22 07:11:09;;;;;;;12.40;3.92;;;;;;;14.31;100.00;99552.34;5006928;28;20049;-95
2022/10/22 07:13:36;;;;;;;12.05;4.40;;;;;;;14.03;100.00;99520.09;5017975;28;20068;-94
2022/10/22 07:16:05;;;;;;;15.23;5.85;;;;;;;14.12;100.00;99543.09;5017028;28;20053;-94
2022/10/22 07:18:33;;;;;;;9.40;4.20;;;;;;;14.08;100.00;99519.75;5006292;28;20091;-95
2022/10/22 07:21:00;;;;;;;9.40;2.95;;;;;;;14.15;100.00;99526.28;5018002;28;20049;-95
2022/10/22 07:23:27;;;;;;;11.43;3.50;;;;;;;14.14;100.00;99533.31;5018153;28;20057;-95
2022/10/22 07:25:54;;;;;;;8.20;3.03;;;;;;;14.15;100.00;99527.09;5017519;28;20049;-95
2022/10/22 07:28:22;;;;;;;11.35;3.63;;;;;;;14.33;100.00;99559.16;5017998;28;20050;-96
2022/10/22 07:30:50;;;;;;;11.32;4.63;;;;;;;14.21;100.00;99555.59;5019766;28;20099;-96
2022/10/22 07:33:30;;;;;;;8.63;3.05;;;;;;;14.02;100.00;99527.16;5038101;28;20484;-94
2022/10/22 07:36:16;;;;;;;11.35;2.88;;;;;;;13.97;100.00;99504.72;5039099;28;20050;-96
2022/10/22 07:38:58;;;;;;;10.85;3.55;;;;;;;13.86;100.00;99514.25;5039234;28;20053;-95
2022/10/22 07:41:39;;;;;;;9.25;3.10;;;;;;;14.31;100.00;99560.25;5039110;28;20048;-96
2022/10/22 07:44:20;;;;;;;9.32;2.95;;;;;;;14.31;100.00;99570.78;5011506;28;20036;-96
2022/10/22 07:47:01;;;;;;;10.02;3.42;;;;;;;14.32;100.00;99559.28;5039368;28;20053;-96
2022/10/22 07:49:43;;;;;;;8.20;3.05;;;;;;;14.13;100.00;99560.59;5024969;28;20068;-94
2022/10/22 07:52:27;;;;;;;7.20;2.28;;;;;;;14.04;100.00;99548.94;5053157;28;20029;-96
2022/10/22 07:55:08;;;;;;;7.40;2.22;;;;;;;14.04;100.00;99535.78;5037575;28;20407;-95
2022/10/22 07:57:49;;;;;;;5.35;1.85;;;;;;;14.04;100.00;99546.31;5037477;28;20049;-95
2022/10/22 08:00:29;;;;;;;6.05;1.98;;;;;;;14.17;100.00;99558.59;5038240;28;20451;-95
2022/10/22 08:03:11;;;;;;;6.40;2.00;;;;;;;14.29;100.00;99559.47;5037930;28;20069;-94
2022/10/22 08:05:53;;;;;;;6.88;1.67;;;;;;;14.22;100.00;99552.03;5037765;28;20029;-94
2022/10/22 08:08:33;;;;;;;5.97;1.95;;;;;;;14.33;100.00;99576.75;5023637;28;20111;-94
2022/10/22 08:11:14;;;;;;;7.32;1.88;;;;;;;14.27;100.00;99571.91;5025746;28;20065;-95
2022/10/22 08:13:55;;;;;;;5.65;1.55;;;;;;;14.23;100.00;99560.78;5027889;28;20369;-95
2022/10/22 08:16:36;;;;;;;5.50;1.77;;;;;;;14.43;100.00;99610.22;5042295;28;20056;-95
2022/10/22 08:19:19;;;;;;;5.30;1.50;;;;;;;14.30;100.00;99574.34;5042555;28;20480;-95
2022/10/22 08:22:00;;;;;;;;;;;;;;;14.57;100.00;99598.69;5027814;28;20072;-96
2022/10/22 08:24:41;;;;;;;3.90;1.20;;;;;;;14.54;100.00;99604.19;5041412;28;19921;-94
2022/10/22 08:27:22;;;;;;;3.83;1.15;;;;;;;14.50;100.00;99579.03;5028072;28;20025;-96
2022/10/22 08:30:07;;;;;;;5.38;1.50;;;;;;;14.43;100.00;99572.53;5028100;28;20053;-96
2022/10/22 08:32:48;;;;;;;5.50;1.85;;;;;;;14.61;100.00;99596.72;5028448;28;20045;-96
2022/10/22 08:35:29;;;;;;;6.20;1.77;;;;;;;14.54;100.00;99591.00;5056880;28;20033;-96
2022/10/22 08:38:10;;;;;;;5.07;1.40;;;;;;;14.40;100.00;99559.56;5057235;28;20115;-96
2022/10/22 08:40:56;;;;;;;3.88;1.27;;;;;;;14.46;100.00;99582.81;5042759;28;20029;-96
2022/10/22 08:44:21;;;;;;;2.67;1.10;;;;;;;14.57;100.00;99614.50;5042464;28;20045;-96
2022/10/22 08:47:02;;;;;;;2.90;0.88;;;;;;;14.63;100.00;99607.16;4962554;29;20075;-91
2022/10/22 08:49:42;;;;;;;2.22;0.93;;;;;;;14.41;100.00;99583.16;4963165;29;20115;-95
2022/10/22 08:52:24;;;;;;;2.45;0.93;;;;;;;14.63;100.00;99613.25;5024624;28;20049;-95
2022/10/22 08:55:12;;;;;;;1.65;0.90;;;;;;;14.63;100.00;99617.69;5024958;28;20048;-95
2022/10/22 08:58:00;;;;;;;3.72;1.00;;;;;;;14.61;100.00;99612.53;5025194;28;20056;-96
2022/10/22 09:00:45;;;;;;;1.98;0.80;;;;;;;14.68;100.00;99616.41;5055561;28;20023;-96
2022/10/22 09:03:37;;;;;;;;;;;;;;;14.76;100.00;99621.94;5037320;28;20061;-94
2022/10/22 09:06:24;;;;;;;1.33;0.80;;;;;;;14.61;100.00;99621.25;5040729;28;20359;-95
2022/10/22 09:09:14;;;;;;;2.78;0.77;;;;;;;14.68;100.00;99618.16;5027953;28;20052;-95
2022/10/22 09:11:57;;;;;;;2.88;1.00;;;;;;;14.67;100.00;99614.69;5036697;28;20395;-92
2022/10/22 09:14:38;;;;;;;1.92;0.90;;;;;;;14.70;100.00;99611.84;5024556;28;20113;-94
2022/10/22 09:17:39;;;;;;;3.17;1.00;;;;;;;14.69;100.00;99604.88;5032753;28;20060;-90
2022/10/22 09:20:47;;;;;;;3.83;1.33;;;;;;;14.73;100.00;99603.72;5040412;28;20046;-93
2022/10/22 09:24:03;;;;;;;4.85;1.48;;;;;;;14.80;100.00;99622.53;5050059;28;20052;-93
2022/10/22 09:26:44;;;;;;;4.95;1.20;;;;;;;14.71;100.00;99621.41;5017014;28;20062;-94
2022/10/22 09:29:38;;;;;;;5.93;1.65;;;;;;;14.59;100.00;99593.34;5027152;28;20085;-93
2022/10/22 09:32:05;;;;;;;8.77;2.42;;;;;;;14.81;100.00;99626.88;5018632;28;20077;-96
2022/10/22 09:34:44;;;;;;;6.97;2.05;;;;;;;14.73;100.00;99619.53;5030475;28;20051;-93
2022/10/22 09:37:27;;;;;;;6.93;1.90;;;;;;;14.72;100.00;99620.47;5028816;28;20107;-89
2022/10/22 09:40:13;;;;;;;;;;;;;;;14.96;100.00;99635.44;5037464;28;20054;-95
2022/10/22 09:42:55;;;;;;;4.60;1.35;;;;;;;14.87;100.00;99638.75;5023638;28;19921;-94
2022/10/22 09:45:35;;;;;;;6.55;2.08;;;;;;;14.84;100.00;99631.06;5019179;28;20057;-94
2022/10/22 09:48:25;;;;;;;6.80;2.40;;;;;;;14.79;100.00;99649.88;5021367;28;20037;-86
2022/10/22 09:51:06;;;;;;;6.60;1.98;;;;;;;14.83;100.00;99643.41;5386346;23;20052;-90
2022/10/22 09:53:58;;;;;;;4.25;1.55;;;;;;;14.88;100.00;99646.56;5020943;28;20050;-91
2022/10/22 09:56:42;;;;;;;7.25;2.30;;;;;;;14.84;100.00;99631.94;5016345;28;20046;-88
2022/10/22 09:59:17;;;;;;;6.03;1.90;;;;;;;14.79;100.00;99623.50;5029157;28;20124;-91
2022/10/22 10:02:03;;;;;;;6.20;2.17;;;;;;;14.97;100.00;99655.59;5042635;28;20108;-90
2022/10/22 10:04:51;;;;;;;5.97;1.88;;;;;;;15.06;100.00;99661.97;5029747;28;20391;-91
2022/10/22 10:07:34;;;;;;;6.30;2.33;;;;;;;15.02;100.00;99644.72;5029953;28;20050;-91
2022/10/22 10:10:38;;;;;;;5.55;2.30;;;;;;;15.07;100.00;99646.06;5029373;28;20033;-91
2022/10/22 10:13:34;;;;;;;6.80;2.33;;;;;;;15.13;100.00;99663.22;5028963;28;20060;-91
2022/10/22 10:16:37;;;;;;;6.95;2.10;;;;;;;14.91;100.00;99635.78;5011372;28;20030;-91
2022/10/22 10:19:17;;;;;;;7.20;1.88;;;;;;;15.16;100.00;99676.19;5020483;28;20101;-91
2022/10/22 10:22:07;;;;;;;5.80;1.90;;;;;;;15.23;100.00;99671.25;5030440;28;20046;-90
2022/10/22 10:25:15;;;;;;;6.95;1.95;;;;;;;15.32;100.00;99676.72;5031080;28;20060;-88
2022/10/22 10:28:02;;;;;;;5.05;1.77;;;;;;;15.30;100.00;99678.63;5029628;28;20110;-91
2022/10/22 10:30:55;;;;;;;4.78;1.75;;;;;;;14.99;100.00;99635.22;5023651;28;20072;-90
2022/10/22 10:34:10;;;;;;;4.72;1.70;;;;;;;15.15;100.00;99669.22;5010565;28;20057;-92
2022/10/22 10:37:03;;;;;;;5.05;1.42;;;;;;;15.16;100.00;99660.34;5027970;28;20049;-90
2022/10/22 10:40:14;;;;;;;3.53;1.33;;;;;;;15.53;100.00;99690.09;5027527;28;20054;-90
2022/10/22 10:43:15;;;;;;;4.22;1.52;;;;;;;15.55;100.00;99676.81;5021983;28;20060;-91
2022/10/22 10:45:59;;;;;;;6.55;1.35;;;;;;;15.29;100.00;99665.56;4973331;28;20051;-92
2022/10/22 10:48:50;;;;;;;2.88;1.00;;;;;;;15.55;100.00;99685.53;5019550;28;20061;-91
2022/10/22 10:51:40;;;;;;;3.00;1.20;;;;;;;15.54;100.00;99691.75;5024032;28;20056;-89
2022/10/22 10:54:31;;;;;;;2.63;1.17;;;;;;;15.63;100.00;99697.31;5021804;28;20053;-89
2022/10/22 10:57:35;;;;;;;2.13;0.80;;;;;;;15.82;100.00;99705.56;5020134;28;20064;-91
2022/10/22 11:00:18;;;;;;;1.88;0.77;;;;;;;15.81;100.00;99698.63;5041403;28;20053;-94
2022/10/22 11:03:23;;;;;;;1.55;0.80;;;;;;;15.81;100.00;99710.94;5028135;28;20072;-94
2022/10/22 11:16:56;;;;;;;1.40;0.73;;;;;;;16.33;100.00;99709.59;5160591;27;20746;-95
2022/10/22 11:19:44;;;;;;;1.05;0.70;;;;;;;16.26;100.00;99696.03;5124182;28;20039;-89
2022/10/22 11:22:40;;;;;;;1.77;0.70;;;;;;;16.22;100.00;99678.75;5121817;28;20393;-94
2022/10/22 11:25:33;;;;;;;0.80;0.60;;;;;;;15.97;100.00;99656.06;5122768;28;20052;-91
2022/10/22 11:28:26;;;;;;;0.50;0.50;;;;;;;16.32;100.00;99697.34;5122124;28;20066;-94
2022/10/22 11:31:09;;;;;;;0.70;0.60;;;;;;;16.17;100.00;99688.81;5115054;28;20052;-93
2022/10/22 11:33:52;;;;;;;1.15;0.60;;;;;;;16.24;100.00;99718.25;5121192;28;20103;-91
2022/10/22 11:36:37;;;;;;;1.65;0.70;;;;;;;16.17;100.00;99698.56;5113804;28;20052;-90
2022/10/22 11:39:04;;;;;;;0.80;0.60;;;;;;;15.82;100.00;99665.97;5113718;28;20050;-90
2022/10/22 11:41:33;;;;;;;1.05;0.50;;;;;;;15.91;100.00;99690.81;5117225;28;20071;-90
2022/10/22 11:44:06;;;;;;;1.75;0.65;;;;;;;16.04;100.00;99712.69;5117067;28;20125;-92
2022/10/22 11:46:45;;;;;;;0.73;0.60;;;;;;;15.84;100.00;99677.25;5120637;28;20543;-93
2022/10/22 11:49:41;;;;;;;1.85;0.80;;;;;;;15.87;100.00;99682.28;5123866;28;20040;-91
2022/10/22 11:52:35;;;;;;;1.15;0.70;;;;;;;16.11;100.00;99715.69;5110253;28;20056;-92
2022/10/22 11:55:22;;;;;;;1.47;0.80;;;;;;;16.05;100.00;99692.41;5081693;28;20401;-93
2022/10/22 11:57:49;;;;;;;1.73;0.70;;;;;;;16.25;100.00;99699.59;5107911;28;20044;-92
2022/10/22 12:00:34;;;;;;;1.90;0.80;;;;;;;16.37;100.00;99723.41;5107192;28;20101;-92
2022/10/22 12:03:14;;;;;;;2.53;1.00;;;;;;;16.35;100.00;99691.00;5107266;28;20490;-91
2022/10/22 12:05:42;;;;;;;1.98;0.70;;;;;;;16.65;100.00;99717.63;5110685;28;20051;-94
2022/10/22 12:08:09;;;;;;;2.35;1.02;;;;;;;16.78;100.00;99717.47;5113474;28;20059;-94
2022/10/22 12:10:59;;;;;;;2.42;1.00;;;;;;;16.73;100.00;99710.88;5114465;28;20062;-95
2022/10/22 12:13:57;;;;;;;2.45;1.00;;;;;;;16.77;100.00;99699.97;5112810;28;20055;-91